sensor_id;sensor_type;location;lat;lon;timestamp;P1;durP1;ratioP1;P2;durP2;ratioP2
17564;SDS011;62994;52.126;5.596;2023-04-19T00:02:24;7.75;;;7.10;;
17564;SDS011;62994;52.126;5.596;2023-04-19T00:04:54;7.32;;;6.75;;
17564;SDS011;62994;52.126;5.596;2023-04-19T00:07:21;7.15;;;6.75;;
17564;SDS011;62994;52.126;5.596;2023-04-19T00:10:07;7.68;;;7.18;;
17564;SDS011;62994;52.126;5.596;2023-04-19T00:12:35;8.13;;;7.03;;
17564;SDS011;62994;52.126;5.596;2023-04-19T00:15:02;7.03;;;6.60;;
17564;SDS011;62994;52.126;5.596;2023-04-19T00:17:29;8.32;;;7.45;;
17564;SDS011;62994;52.126;5.596;2023-04-19T00:19:57;7.35;;;6.93;;
17564;SDS011;62994;52.126;5.596;2023-04-19T00:22:29;7.75;;;7.05;;
17564;SDS011;62994;52.126;5.596;2023-04-19T00:24:59;7.50;;;6.88;;
17564;SDS011;62994;52.126;5.596;2023-04-19T00:27:26;7.82;;;7.32;;
17564;SDS011;62994;52.126;5.596;2023-04-19T00:29:53;7.70;;;6.97;;
17564;SDS011;62994;52.126;5.596;2023-04-19T00:32:24;7.78;;;6.90;;
17564;SDS011;62994;52.126;5.596;2023-04-19T00:34:51;7.47;;;6.88;;
17564;SDS011;62994;52.126;5.596;2023-04-19T00:37:20;7.47;;;6.85;;
17564;SDS011;62994;52.126;5.596;2023-04-19T00:39:47;6.80;;;6.43;;
17564;SDS011;62994;52.126;5.596;2023-04-19T00:42:14;7.50;;;7.00;;
17564;SDS011;62994;52.126;5.596;2023-04-19T00:44:41;8.00;;;7.40;;
17564;SDS011;62994;52.126;5.596;2023-04-19T00:47:08;7.22;;;6.70;;
17564;SDS011;62994;52.126;5.596;2023-04-19T00:49:35;8.00;;;7.40;;
17564;SDS011;62994;52.126;5.596;2023-04-19T00:52:03;7.72;;;7.22;;
17564;SDS011;62994;52.126;5.596;2023-04-19T00:54:31;8.23;;;7.53;;
17564;SDS011;62994;52.126;5.596;2023-04-19T00:56:59;7.97;;;7.40;;
17564;SDS011;62994;52.126;5.596;2023-04-19T00:59:30;7.18;;;6.68;;
17564;SDS011;62994;52.126;5.596;2023-04-19T01:01:58;7.95;;;7.35;;
17564;SDS011;62994;52.126;5.596;2023-04-19T01:04:25;7.85;;;7.35;;
17564;SDS011;62994;52.126;5.596;2023-04-19T01:06:52;7.35;;;6.85;;
17564;SDS011;62994;52.126;5.596;2023-04-19T01:09:19;8.65;;;7.95;;
17564;SDS011;62994;52.126;5.596;2023-04-19T01:11:54;8.32;;;7.63;;
17564;SDS011;62994;52.126;5.596;2023-04-19T01:14:21;8.85;;;8.15;;
17564;SDS011;62994;52.126;5.596;2023-04-19T01:16:48;7.90;;;7.32;;
17564;SDS011;62994;52.126;5.596;2023-04-19T01:19:15;7.97;;;7.38;;
17564;SDS011;62994;52.126;5.596;2023-04-19T01:21:44;8.18;;;7.47;;
17564;SDS011;62994;52.126;5.596;2023-04-19T01:24:12;9.25;;;8.55;;
17564;SDS011;62994;52.126;5.596;2023-04-19T01:26:39;9.10;;;8.30;;
17564;SDS011;62994;52.126;5.596;2023-04-19T01:29:06;7.72;;;7.13;;
17564;SDS011;62994;52.126;5.596;2023-04-19T01:31:38;8.52;;;7.93;;
17564;SDS011;62994;52.126;5.596;2023-04-19T01:34:05;10.55;;;8.27;;
17564;SDS011;62994;52.126;5.596;2023-04-19T01:36:32;8.15;;;7.65;;
17564;SDS011;62994;52.126;5.596;2023-04-19T01:39:00;9.10;;;8.18;;
17564;SDS011;62994;52.126;5.596;2023-04-19T01:41:38;9.45;;;8.65;;
17564;SDS011;62994;52.126;5.596;2023-04-19T01:44:05;9.57;;;8.77;;
17564;SDS011;62994;52.126;5.596;2023-04-19T01:46:32;8.75;;;8.05;;
17564;SDS011;62994;52.126;5.596;2023-04-19T01:49:06;8.65;;;7.95;;
17564;SDS011;62994;52.126;5.596;2023-04-19T01:51:34;9.27;;;8.32;;
17564;SDS011;62994;52.126;5.596;2023-04-19T01:54:01;8.50;;;7.78;;
17564;SDS011;62994;52.126;5.596;2023-04-19T01:56:30;8.95;;;8.15;;
17564;SDS011;62994;52.126;5.596;2023-04-19T01:58:58;8.80;;;8.18;;
17564;SDS011;62994;52.126;5.596;2023-04-19T02:01:25;9.85;;;8.98;;
17564;SDS011;62994;52.126;5.596;2023-04-19T02:03:52;9.02;;;8.40;;
17564;SDS011;62994;52.126;5.596;2023-04-19T02:06:19;8.27;;;7.65;;
17564;SDS011;62994;52.126;5.596;2023-04-19T02:08:46;9.55;;;8.73;;
17564;SDS011;62994;52.126;5.596;2023-04-19T02:11:14;9.15;;;8.35;;
17564;SDS011;62994;52.126;5.596;2023-04-19T02:13:46;9.55;;;8.75;;
17564;SDS011;62994;52.126;5.596;2023-04-19T02:16:19;8.60;;;8.05;;
17564;SDS011;62994;52.126;5.596;2023-04-19T02:18:46;9.68;;;8.77;;
17564;SDS011;62994;52.126;5.596;2023-04-19T02:21:18;9.35;;;8.35;;
17564;SDS011;62994;52.126;5.596;2023-04-19T02:23:46;10.02;;;9.10;;
17564;SDS011;62994;52.126;5.596;2023-04-19T02:26:13;9.20;;;8.48;;
17564;SDS011;62994;52.126;5.596;2023-04-19T02:28:40;8.98;;;8.18;;
17564;SDS011;62994;52.126;5.596;2023-04-19T02:31:07;9.80;;;8.90;;
17564;SDS011;62994;52.126;5.596;2023-04-19T02:33:39;9.55;;;8.52;;
17564;SDS011;62994;52.126;5.596;2023-04-19T02:36:06;9.70;;;8.75;;
17564;SDS011;62994;52.126;5.596;2023-04-19T02:38:34;9.52;;;8.73;;
17564;SDS011;62994;52.126;5.596;2023-04-19T02:41:06;11.23;;;8.48;;
17564;SDS011;62994;52.126;5.596;2023-04-19T02:43:33;9.30;;;8.48;;
17564;SDS011;62994;52.126;5.596;2023-04-19T02:46:00;8.98;;;8.07;;
17564;SDS011;62994;52.126;5.596;2023-04-19T02:48:28;8.32;;;7.63;;
17564;SDS011;62994;52.126;5.596;2023-04-19T02:50:56;10.32;;;9.32;;
17564;SDS011;62994;52.126;5.596;2023-04-19T02:53:23;10.20;;;9.20;;
17564;SDS011;62994;52.126;5.596;2023-04-19T02:55:50;8.90;;;8.20;;
17564;SDS011;62994;52.126;5.596;2023-04-19T02:58:19;9.23;;;8.43;;
17564;SDS011;62994;52.126;5.596;2023-04-19T03:00:48;8.98;;;8.05;;
17564;SDS011;62994;52.126;5.596;2023-04-19T03:03:15;9.85;;;8.60;;
17564;SDS011;62994;52.126;5.596;2023-04-19T03:05:43;9.02;;;8.23;;
17564;SDS011;62994;52.126;5.596;2023-04-19T03:08:11;10.25;;;8.13;;
17564;SDS011;62994;52.126;5.596;2023-04-19T03:10:38;8.65;;;7.95;;
17564;SDS011;62994;52.126;5.596;2023-04-19T03:13:05;8.13;;;7.50;;
17564;SDS011;62994;52.126;5.596;2023-04-19T03:15:35;10.52;;;7.70;;
17564;SDS011;62994;52.126;5.596;2023-04-19T03:18:03;8.05;;;7.45;;
17564;SDS011;62994;52.126;5.596;2023-04-19T03:20:30;9.57;;;8.70;;
17564;SDS011;62994;52.126;5.596;2023-04-19T03:23:01;8.05;;;7.45;;
17564;SDS011;62994;52.126;5.596;2023-04-19T03:25:29;8.27;;;7.75;;
17564;SDS011;62994;52.126;5.596;2023-04-19T03:27:57;8.02;;;7.32;;
17564;SDS011;62994;52.126;5.596;2023-04-19T03:30:24;7.88;;;7.30;;
17564;SDS011;62994;52.126;5.596;2023-04-19T03:32:51;8.82;;;8.02;;
17564;SDS011;62994;52.126;5.596;2023-04-19T03:35:22;7.90;;;7.32;;
17564;SDS011;62994;52.126;5.596;2023-04-19T03:37:50;10.90;;;7.32;;
17564;SDS011;62994;52.126;5.596;2023-04-19T03:40:18;7.53;;;7.00;;
17564;SDS011;62994;52.126;5.596;2023-04-19T03:42:47;10.25;;;8.05;;
17564;SDS011;62994;52.126;5.596;2023-04-19T03:45:22;8.52;;;7.68;;
17564;SDS011;62994;52.126;5.596;2023-04-19T03:47:49;9.23;;;7.30;;
17564;SDS011;62994;52.126;5.596;2023-04-19T03:50:20;8.30;;;7.57;;
17564;SDS011;62994;52.126;5.596;2023-04-19T03:52:56;10.15;;;7.75;;
17564;SDS011;62994;52.126;5.596;2023-04-19T03:55:24;7.50;;;6.93;;
17564;SDS011;62994;52.126;5.596;2023-04-19T03:57:53;8.30;;;7.68;;
17564;SDS011;62994;52.126;5.596;2023-04-19T04:00:25;7.68;;;7.07;;
17564;SDS011;62994;52.126;5.596;2023-04-19T04:02:56;7.95;;;7.25;;
17564;SDS011;62994;52.126;5.596;2023-04-19T04:05:23;7.50;;;6.85;;
17564;SDS011;62994;52.126;5.596;2023-04-19T04:07:52;8.40;;;7.75;;
17564;SDS011;62994;52.126;5.596;2023-04-19T04:10:20;8.02;;;7.38;;
17564;SDS011;62994;52.126;5.596;2023-04-19T04:12:47;8.07;;;7.38;;
17564;SDS011;62994;52.126;5.596;2023-04-19T04:15:16;8.73;;;7.95;;
17564;SDS011;62994;52.126;5.596;2023-04-19T04:17:43;8.30;;;7.55;;
17564;SDS011;62994;52.126;5.596;2023-04-19T04:20:10;8.27;;;7.55;;
17564;SDS011;62994;52.126;5.596;2023-04-19T04:22:39;7.78;;;7.20;;
17564;SDS011;62994;52.126;5.596;2023-04-19T04:25:07;7.07;;;6.65;;
17564;SDS011;62994;52.126;5.596;2023-04-19T04:27:35;8.57;;;7.45;;
17564;SDS011;62994;52.126;5.596;2023-04-19T04:30:02;7.60;;;6.95;;
17564;SDS011;62994;52.126;5.596;2023-04-19T04:32:31;8.10;;;7.50;;
17564;SDS011;62994;52.126;5.596;2023-04-19T04:34:59;8.50;;;7.88;;
17564;SDS011;62994;52.126;5.596;2023-04-19T04:37:26;7.28;;;6.68;;
17564;SDS011;62994;52.126;5.596;2023-04-19T04:39:53;8.57;;;7.63;;
17564;SDS011;62994;52.126;5.596;2023-04-19T04:42:25;7.45;;;6.85;;
17564;SDS011;62994;52.126;5.596;2023-04-19T04:44:55;7.18;;;6.72;;
17564;SDS011;62994;52.126;5.596;2023-04-19T04:47:30;7.65;;;6.95;;
17564;SDS011;62994;52.126;5.596;2023-04-19T04:49:58;8.05;;;7.32;;
17564;SDS011;62994;52.126;5.596;2023-04-19T04:52:25;8.15;;;7.55;;
17564;SDS011;62994;52.126;5.596;2023-04-19T04:54:52;6.80;;;6.35;;
17564;SDS011;62994;52.126;5.596;2023-04-19T04:57:19;7.63;;;6.97;;
17564;SDS011;62994;52.126;5.596;2023-04-19T04:59:46;7.18;;;6.65;;
17564;SDS011;62994;52.126;5.596;2023-04-19T05:02:14;7.50;;;6.82;;
17564;SDS011;62994;52.126;5.596;2023-04-19T05:04:44;7.65;;;6.90;;
17564;SDS011;62994;52.126;5.596;2023-04-19T05:07:10;8.93;;;7.10;;
17564;SDS011;62994;52.126;5.596;2023-04-19T05:09:37;7.57;;;6.82;;
17564;SDS011;62994;52.126;5.596;2023-04-19T05:12:05;7.32;;;6.72;;
17564;SDS011;62994;52.126;5.596;2023-04-19T05:14:32;8.32;;;6.97;;
17564;SDS011;62994;52.126;5.596;2023-04-19T05:16:59;9.73;;;6.40;;
17564;SDS011;62994;52.126;5.596;2023-04-19T05:19:26;6.40;;;5.90;;
17564;SDS011;62994;52.126;5.596;2023-04-19T05:21:54;7.57;;;6.43;;
17564;SDS011;62994;52.126;5.596;2023-04-19T05:24:21;7.35;;;6.78;;
17564;SDS011;62994;52.126;5.596;2023-04-19T05:26:50;6.40;;;5.90;;
17564;SDS011;62994;52.126;5.596;2023-04-19T05:29:17;5.85;;;5.45;;
17564;SDS011;62994;52.126;5.596;2023-04-19T05:31:44;7.82;;;6.03;;
17564;SDS011;62994;52.126;5.596;2023-04-19T05:34:14;5.55;;;5.15;;
17564;SDS011;62994;52.126;5.596;2023-04-19T05:37:01;5.88;;;5.10;;
17564;SDS011;62994;52.126;5.596;2023-04-19T05:39:30;6.38;;;5.88;;
17564;SDS011;62994;52.126;5.596;2023-04-19T05:41:57;8.32;;;5.10;;
17564;SDS011;62994;52.126;5.596;2023-04-19T05:44:24;5.65;;;5.32;;
17564;SDS011;62994;52.126;5.596;2023-04-19T05:46:56;7.00;;;5.20;;
17564;SDS011;62994;52.126;5.596;2023-04-19T05:49:23;5.43;;;5.00;;
17564;SDS011;62994;52.126;5.596;2023-04-19T05:51:50;5.70;;;5.40;;
17564;SDS011;62994;52.126;5.596;2023-04-19T05:54:21;6.60;;;4.72;;
17564;SDS011;62994;52.126;5.596;2023-04-19T05:56:47;6.82;;;4.88;;
17564;SDS011;62994;52.126;5.596;2023-04-19T05:59:14;5.68;;;5.30;;
17564;SDS011;62994;52.126;5.596;2023-04-19T06:01:41;5.35;;;4.85;;
17564;SDS011;62994;52.126;5.596;2023-04-19T06:04:08;5.65;;;5.25;;
17564;SDS011;62994;52.126;5.596;2023-04-19T06:06:35;5.15;;;4.70;;
17564;SDS011;62994;52.126;5.596;2023-04-19T06:09:03;5.47;;;5.15;;
17564;SDS011;62994;52.126;5.596;2023-04-19T06:11:33;5.80;;;5.30;;
17564;SDS011;62994;52.126;5.596;2023-04-19T06:14:00;7.15;;;4.68;;
17564;SDS011;62994;52.126;5.596;2023-04-19T06:16:31;9.27;;;4.70;;
17564;SDS011;62994;52.126;5.596;2023-04-19T06:18:58;5.10;;;4.80;;
17564;SDS011;62994;52.126;5.596;2023-04-19T06:21:26;5.28;;;4.32;;
17564;SDS011;62994;52.126;5.596;2023-04-19T06:23:55;5.43;;;5.03;;
17564;SDS011;62994;52.126;5.596;2023-04-19T06:26:24;5.00;;;4.60;;
17564;SDS011;62994;52.126;5.596;2023-04-19T06:28:57;8.07;;;4.63;;
17564;SDS011;62994;52.126;5.596;2023-04-19T06:31:24;4.82;;;4.43;;
17564;SDS011;62994;52.126;5.596;2023-04-19T06:33:52;5.60;;;4.15;;
17564;SDS011;62994;52.126;5.596;2023-04-19T06:36:19;4.63;;;4.32;;
17564;SDS011;62994;52.126;5.596;2023-04-19T06:38:46;7.68;;;4.55;;
17564;SDS011;62994;52.126;5.596;2023-04-19T06:41:14;4.55;;;4.15;;
17564;SDS011;62994;52.126;5.596;2023-04-19T06:43:41;4.35;;;4.07;;
17564;SDS011;62994;52.126;5.596;2023-04-19T06:46:15;4.45;;;4.00;;
17564;SDS011;62994;52.126;5.596;2023-04-19T06:48:42;6.13;;;4.30;;
17564;SDS011;62994;52.126;5.596;2023-04-19T06:51:09;5.88;;;3.80;;
17564;SDS011;62994;52.126;5.596;2023-04-19T06:53:36;5.00;;;3.60;;
17564;SDS011;62994;52.126;5.596;2023-04-19T06:56:09;3.78;;;3.58;;
17564;SDS011;62994;52.126;5.596;2023-04-19T06:58:37;3.38;;;3.08;;
17564;SDS011;62994;52.126;5.596;2023-04-19T07:01:04;3.35;;;3.15;;
17564;SDS011;62994;52.126;5.596;2023-04-19T07:03:33;3.67;;;3.45;;
17564;SDS011;62994;52.126;5.596;2023-04-19T07:06:01;5.00;;;3.30;;
17564;SDS011;62994;52.126;5.596;2023-04-19T07:08:28;3.55;;;3.28;;
17564;SDS011;62994;52.126;5.596;2023-04-19T07:10:55;3.20;;;3.00;;
17564;SDS011;62994;52.126;5.596;2023-04-19T07:13:29;5.32;;;3.28;;
17564;SDS011;62994;52.126;5.596;2023-04-19T07:15:56;2.85;;;2.70;;
17564;SDS011;62994;52.126;5.596;2023-04-19T07:18:23;3.30;;;3.10;;
17564;SDS011;62994;52.126;5.596;2023-04-19T07:20:51;2.70;;;2.60;;
17564;SDS011;62994;52.126;5.596;2023-04-19T07:23:18;5.25;;;3.00;;
17564;SDS011;62994;52.126;5.596;2023-04-19T07:25:45;3.97;;;2.78;;
17564;SDS011;62994;52.126;5.596;2023-04-19T07:28:12;2.58;;;2.38;;
17564;SDS011;62994;52.126;5.596;2023-04-19T07:30:40;2.88;;;2.67;;
17564;SDS011;62994;52.126;5.596;2023-04-19T07:33:10;4.05;;;2.58;;
17564;SDS011;62994;52.126;5.596;2023-04-19T07:35:37;3.97;;;2.42;;
17564;SDS011;62994;52.126;5.596;2023-04-19T07:38:06;4.72;;;2.75;;
17564;SDS011;62994;52.126;5.596;2023-04-19T07:40:33;3.42;;;2.78;;
17564;SDS011;62994;52.126;5.596;2023-04-19T07:43:00;2.92;;;2.72;;
17564;SDS011;62994;52.126;5.596;2023-04-19T07:45:28;3.45;;;3.15;;
17564;SDS011;62994;52.126;5.596;2023-04-19T07:47:56;2.97;;;2.78;;
17564;SDS011;62994;52.126;5.596;2023-04-19T07:50:27;3.08;;;2.80;;
17564;SDS011;62994;52.126;5.596;2023-04-19T07:52:59;2.97;;;2.42;;
17564;SDS011;62994;52.126;5.596;2023-04-19T07:55:27;3.30;;;3.10;;
17564;SDS011;62994;52.126;5.596;2023-04-19T07:57:57;3.42;;;3.13;;
17564;SDS011;62994;52.126;5.596;2023-04-19T08:00:26;2.42;;;2.33;;
17564;SDS011;62994;52.126;5.596;2023-04-19T08:02:54;3.63;;;2.92;;
17564;SDS011;62994;52.126;5.596;2023-04-19T08:05:21;2.92;;;2.50;;
17564;SDS011;62994;52.126;5.596;2023-04-19T08:07:50;2.50;;;2.40;;
17564;SDS011;62994;52.126;5.596;2023-04-19T08:10:18;2.58;;;2.35;;
17564;SDS011;62994;52.126;5.596;2023-04-19T08:12:50;3.33;;;2.38;;
17564;SDS011;62994;52.126;5.596;2023-04-19T08:15:17;4.63;;;2.35;;
17564;SDS011;62994;52.126;5.596;2023-04-19T08:17:44;2.70;;;2.50;;
17564;SDS011;62994;52.126;5.596;2023-04-19T08:20:11;2.92;;;2.00;;
17564;SDS011;62994;52.126;5.596;2023-04-19T08:22:52;2.92;;;1.70;;
17564;SDS011;62994;52.126;5.596;2023-04-19T08:25:24;4.30;;;1.80;;
17564;SDS011;62994;52.126;5.596;2023-04-19T08:28:02;2.83;;;2.05;;
17564;SDS011;62994;52.126;5.596;2023-04-19T08:30:36;2.10;;;1.90;;
17564;SDS011;62994;52.126;5.596;2023-04-19T08:33:08;3.42;;;1.70;;
17564;SDS011;62994;52.126;5.596;2023-04-19T08:35:38;1.67;;;1.58;;
17564;SDS011;62994;52.126;5.596;2023-04-19T08:38:06;4.80;;;1.77;;
17564;SDS011;62994;52.126;5.596;2023-04-19T08:40:33;3.03;;;1.77;;
17564;SDS011;62994;52.126;5.596;2023-04-19T08:43:05;3.38;;;1.90;;
17564;SDS011;62994;52.126;5.596;2023-04-19T08:45:32;3.22;;;1.50;;
17564;SDS011;62994;52.126;5.596;2023-04-19T08:48:07;1.55;;;1.45;;
17564;SDS011;62994;52.126;5.596;2023-04-19T08:50:35;1.55;;;1.45;;
17564;SDS011;62994;52.126;5.596;2023-04-19T08:53:08;1.90;;;1.67;;
17564;SDS011;62994;52.126;5.596;2023-04-19T08:55:37;2.28;;;1.10;;
17564;SDS011;62994;52.126;5.596;2023-04-19T08:58:07;1.42;;;1.15;;
17564;SDS011;62994;52.126;5.596;2023-04-19T09:00:39;3.05;;;1.55;;
17564;SDS011;62994;52.126;5.596;2023-04-19T09:03:06;1.40;;;1.30;;
17564;SDS011;62994;52.126;5.596;2023-04-19T09:05:38;1.75;;;1.50;;
17564;SDS011;62994;52.126;5.596;2023-04-19T09:08:23;1.55;;;1.45;;
17564;SDS011;62994;52.126;5.596;2023-04-19T09:10:52;1.30;;;1.20;;
17564;SDS011;62994;52.126;5.596;2023-04-19T09:13:22;1.40;;;1.25;;
17564;SDS011;62994;52.126;5.596;2023-04-19T09:15:51;4.95;;;1.20;;
17564;SDS011;62994;52.126;5.596;2023-04-19T09:18:24;2.75;;;1.05;;
17564;SDS011;62994;52.126;5.596;2023-04-19T09:20:52;1.35;;;1.35;;
17564;SDS011;62994;52.126;5.596;2023-04-19T09:23:22;2.25;;;1.60;;
17564;SDS011;62994;52.126;5.596;2023-04-19T09:25:52;1.50;;;1.40;;
17564;SDS011;62994;52.126;5.596;2023-04-19T09:28:23;1.38;;;1.38;;
17564;SDS011;62994;52.126;5.596;2023-04-19T09:30:50;1.50;;;1.40;;
17564;SDS011;62994;52.126;5.596;2023-04-19T09:33:30;2.33;;;1.45;;
17564;SDS011;62994;52.126;5.596;2023-04-19T09:35:58;1.92;;;1.58;;
17564;SDS011;62994;52.126;5.596;2023-04-19T09:38:26;1.50;;;1.40;;
17564;SDS011;62994;52.126;5.596;2023-04-19T09:41:04;4.47;;;1.60;;
17564;SDS011;62994;52.126;5.596;2023-04-19T09:43:34;1.42;;;1.40;;
17564;SDS011;62994;52.126;5.596;2023-04-19T09:46:01;1.45;;;1.35;;
17564;SDS011;62994;52.126;5.596;2023-04-19T09:48:28;1.60;;;1.50;;
17564;SDS011;62994;52.126;5.596;2023-04-19T09:50:56;1.52;;;1.42;;
17564;SDS011;62994;52.126;5.596;2023-04-19T09:53:26;2.00;;;1.58;;
17564;SDS011;62994;52.126;5.596;2023-04-19T09:55:55;2.10;;;1.50;;
17564;SDS011;62994;52.126;5.596;2023-04-19T09:58:22;1.40;;;1.40;;
17564;SDS011;62994;52.126;5.596;2023-04-19T10:00:51;1.92;;;1.48;;
17564;SDS011;62994;52.126;5.596;2023-04-19T10:03:22;2.10;;;1.60;;
17564;SDS011;62994;52.126;5.596;2023-04-19T10:05:54;2.25;;;1.83;;
17564;SDS011;62994;52.126;5.596;2023-04-19T10:08:22;1.65;;;1.55;;
17564;SDS011;62994;52.126;5.596;2023-04-19T10:10:51;1.60;;;1.50;;
17564;SDS011;62994;52.126;5.596;2023-04-19T10:13:19;2.72;;;1.60;;
17564;SDS011;62994;52.126;5.596;2023-04-19T10:15:48;3.20;;;1.50;;
17564;SDS011;62994;52.126;5.596;2023-04-19T10:18:16;1.80;;;1.60;;
17564;SDS011;62994;52.126;5.596;2023-04-19T10:20:46;1.42;;;1.40;;
17564;SDS011;62994;52.126;5.596;2023-04-19T10:23:18;3.17;;;1.70;;
17564;SDS011;62994;52.126;5.596;2023-04-19T10:25:53;4.88;;;1.58;;
17564;SDS011;62994;52.126;5.596;2023-04-19T10:28:21;2.45;;;1.30;;
17564;SDS011;62994;52.126;5.596;2023-04-19T10:30:52;1.92;;;1.83;;
17564;SDS011;62994;52.126;5.596;2023-04-19T10:33:28;1.77;;;1.67;;
17564;SDS011;62994;52.126;5.596;2023-04-19T10:35:56;1.65;;;1.55;;
17564;SDS011;62994;52.126;5.596;2023-04-19T10:38:34;1.42;;;1.40;;
17564;SDS011;62994;52.126;5.596;2023-04-19T10:41:03;1.88;;;1.63;;
17564;SDS011;62994;52.126;5.596;2023-04-19T10:43:36;1.60;;;1.50;;
17564;SDS011;62994;52.126;5.596;2023-04-19T10:46:07;1.70;;;1.60;;
17564;SDS011;62994;52.126;5.596;2023-04-19T10:48:40;2.70;;;1.48;;
17564;SDS011;62994;52.126;5.596;2023-04-19T10:51:18;1.58;;;1.38;;
17564;SDS011;62994;52.126;5.596;2023-04-19T10:53:47;1.55;;;1.40;;
17564;SDS011;62994;52.126;5.596;2023-04-19T10:56:20;2.47;;;1.40;;
17564;SDS011;62994;52.126;5.596;2023-04-19T10:59:11;2.30;;;1.50;;
17564;SDS011;62994;52.126;5.596;2023-04-19T11:01:46;1.90;;;1.63;;
17564;SDS011;62994;52.126;5.596;2023-04-19T11:04:17;1.45;;;1.40;;
17564;SDS011;62994;52.126;5.596;2023-04-19T11:07:01;3.33;;;1.60;;
17564;SDS011;62994;52.126;5.596;2023-04-19T11:09:30;2.03;;;1.92;;
17564;SDS011;62994;52.126;5.596;2023-04-19T11:11:59;3.58;;;1.75;;
17564;SDS011;62994;52.126;5.596;2023-04-19T11:14:29;1.75;;;1.65;;
17564;SDS011;62994;52.126;5.596;2023-04-19T11:16:58;1.85;;;1.58;;
17564;SDS011;62994;52.126;5.596;2023-04-19T11:19:28;3.55;;;1.50;;
17564;SDS011;62994;52.126;5.596;2023-04-19T11:21:57;1.70;;;1.60;;
17564;SDS011;62994;52.126;5.596;2023-04-19T11:24:25;1.42;;;1.40;;
17564;SDS011;62994;52.126;5.596;2023-04-19T11:26:54;1.80;;;1.70;;
17564;SDS011;62994;52.126;5.596;2023-04-19T11:29:24;1.65;;;1.55;;
17564;SDS011;62994;52.126;5.596;2023-04-19T11:31:52;1.67;;;1.67;;
17564;SDS011;62994;52.126;5.596;2023-04-19T11:34:22;2.25;;;1.77;;
17564;SDS011;62994;52.126;5.596;2023-04-19T11:36:51;1.73;;;1.63;;
17564;SDS011;62994;52.126;5.596;2023-04-19T11:39:20;6.30;;;1.80;;
17564;SDS011;62994;52.126;5.596;2023-04-19T11:41:48;5.03;;;2.13;;
17564;SDS011;62994;52.126;5.596;2023-04-19T11:44:16;2.13;;;2.03;;
17564;SDS011;62994;52.126;5.596;2023-04-19T11:46:58;1.63;;;1.52;;
17564;SDS011;62994;52.126;5.596;2023-04-19T11:49:26;2.85;;;2.08;;
17564;SDS011;62994;52.126;5.596;2023-04-19T11:51:57;2.60;;;2.10;;
17564;SDS011;62994;52.126;5.596;2023-04-19T11:54:27;2.90;;;2.20;;
17564;SDS011;62994;52.126;5.596;2023-04-19T11:56:58;2.17;;;2.08;;
17564;SDS011;62994;52.126;5.596;2023-04-19T11:59:31;2.75;;;1.83;;
17564;SDS011;62994;52.126;5.596;2023-04-19T12:02:06;3.17;;;2.00;;
17564;SDS011;62994;52.126;5.596;2023-04-19T12:04:34;2.20;;;2.10;;
17564;SDS011;62994;52.126;5.596;2023-04-19T12:07:03;2.10;;;2.00;;
17564;SDS011;62994;52.126;5.596;2023-04-19T12:09:32;3.00;;;1.83;;
17564;SDS011;62994;52.126;5.596;2023-04-19T12:12:01;2.28;;;2.10;;
17564;SDS011;62994;52.126;5.596;2023-04-19T12:14:28;9.25;;;2.10;;
17564;SDS011;62994;52.126;5.596;2023-04-19T12:17:06;2.45;;;2.10;;
17564;SDS011;62994;52.126;5.596;2023-04-19T12:19:41;2.50;;;2.30;;
17564;SDS011;62994;52.126;5.596;2023-04-19T12:22:12;3.00;;;2.08;;
17564;SDS011;62994;52.126;5.596;2023-04-19T12:24:40;2.15;;;2.05;;
17564;SDS011;62994;52.126;5.596;2023-04-19T12:27:08;1.80;;;1.70;;
17564;SDS011;62994;52.126;5.596;2023-04-19T12:29:36;3.42;;;1.88;;
17564;SDS011;62994;52.126;5.596;2023-04-19T12:32:04;2.10;;;1.90;;
17564;SDS011;62994;52.126;5.596;2023-04-19T12:34:37;2.45;;;1.90;;
17564;SDS011;62994;52.126;5.596;2023-04-19T12:37:04;2.83;;;2.25;;
17564;SDS011;62994;52.126;5.596;2023-04-19T12:39:33;2.17;;;2.08;;
17564;SDS011;62994;52.126;5.596;2023-04-19T12:42:00;3.88;;;1.83;;
17564;SDS011;62994;52.126;5.596;2023-04-19T12:44:30;3.55;;;2.28;;
17564;SDS011;62994;52.126;5.596;2023-04-19T12:46:57;2.65;;;2.15;;
17564;SDS011;62994;52.126;5.596;2023-04-19T12:49:29;6.63;;;2.15;;
17564;SDS011;62994;52.126;5.596;2023-04-19T12:51:56;2.40;;;2.30;;
17564;SDS011;62994;52.126;5.596;2023-04-19T12:54:23;4.82;;;2.42;;
17564;SDS011;62994;52.126;5.596;2023-04-19T12:56:51;2.80;;;2.42;;
17564;SDS011;62994;52.126;5.596;2023-04-19T12:59:19;2.15;;;2.05;;
17564;SDS011;62994;52.126;5.596;2023-04-19T13:01:46;2.92;;;2.30;;
17564;SDS011;62994;52.126;5.596;2023-04-19T13:04:19;2.55;;;2.38;;
17564;SDS011;62994;52.126;5.596;2023-04-19T13:06:48;4.70;;;2.55;;
17564;SDS011;62994;52.126;5.596;2023-04-19T13:09:15;3.55;;;1.88;;
17564;SDS011;62994;52.126;5.596;2023-04-19T13:11:43;4.07;;;1.90;;
17564;SDS011;62994;52.126;5.596;2023-04-19T13:14:11;4.20;;;2.20;;
17564;SDS011;62994;52.126;5.596;2023-04-19T13:16:39;2.78;;;2.00;;
17564;SDS011;62994;52.126;5.596;2023-04-19T13:19:06;3.45;;;2.15;;
17564;SDS011;62994;52.126;5.596;2023-04-19T13:21:33;1.95;;;1.85;;
17564;SDS011;62994;52.126;5.596;2023-04-19T13:24:00;4.32;;;1.70;;
17564;SDS011;62994;52.126;5.596;2023-04-19T13:26:28;1.73;;;1.70;;
17564;SDS011;62994;52.126;5.596;2023-04-19T13:28:58;2.22;;;1.92;;
17564;SDS011;62994;52.126;5.596;2023-04-19T13:31:33;3.30;;;1.90;;
17564;SDS011;62994;52.126;5.596;2023-04-19T13:34:08;2.10;;;1.80;;
17564;SDS011;62994;52.126;5.596;2023-04-19T13:36:35;4.30;;;1.85;;
17564;SDS011;62994;52.126;5.596;2023-04-19T13:39:03;1.70;;;1.60;;
17564;SDS011;62994;52.126;5.596;2023-04-19T13:41:30;1.80;;;1.70;;
17564;SDS011;62994;52.126;5.596;2023-04-19T13:43:59;8.43;;;1.90;;
17564;SDS011;62994;52.126;5.596;2023-04-19T13:46:29;2.30;;;1.52;;
17564;SDS011;62994;52.126;5.596;2023-04-19T13:48:59;6.72;;;1.80;;
17564;SDS011;62994;52.126;5.596;2023-04-19T13:51:27;1.95;;;1.85;;
17564;SDS011;62994;52.126;5.596;2023-04-19T13:53:55;4.72;;;1.80;;
17564;SDS011;62994;52.126;5.596;2023-04-19T13:56:28;5.63;;;1.90;;
17564;SDS011;62994;52.126;5.596;2023-04-19T13:58:56;1.70;;;1.60;;
17564;SDS011;62994;52.126;5.596;2023-04-19T14:01:24;1.98;;;1.80;;
17564;SDS011;62994;52.126;5.596;2023-04-19T14:03:52;2.55;;;1.73;;
17564;SDS011;62994;52.126;5.596;2023-04-19T14:06:22;5.07;;;1.67;;
17564;SDS011;62994;52.126;5.596;2023-04-19T14:08:53;2.05;;;1.85;;
17564;SDS011;62994;52.126;5.596;2023-04-19T14:11:24;4.30;;;2.08;;
17564;SDS011;62994;52.126;5.596;2023-04-19T14:13:51;2.28;;;1.77;;
17564;SDS011;62994;52.126;5.596;2023-04-19T14:16:20;1.63;;;1.52;;
17564;SDS011;62994;52.126;5.596;2023-04-19T14:18:49;6.53;;;1.90;;
17564;SDS011;62994;52.126;5.596;2023-04-19T14:21:17;2.20;;;1.73;;
17564;SDS011;62994;52.126;5.596;2023-04-19T14:23:46;1.80;;;1.70;;
17564;SDS011;62994;52.126;5.596;2023-04-19T14:26:14;1.80;;;1.70;;
17564;SDS011;62994;52.126;5.596;2023-04-19T14:28:41;3.10;;;1.92;;
17564;SDS011;62994;52.126;5.596;2023-04-19T14:31:13;3.25;;;1.63;;
17564;SDS011;62994;52.126;5.596;2023-04-19T14:33:41;2.78;;;1.52;;
17564;SDS011;62994;52.126;5.596;2023-04-19T14:36:09;2.03;;;1.92;;
17564;SDS011;62994;52.126;5.596;2023-04-19T14:38:36;2.03;;;1.92;;
17564;SDS011;62994;52.126;5.596;2023-04-19T14:41:05;4.47;;;2.05;;
17564;SDS011;62994;52.126;5.596;2023-04-19T14:43:33;4.57;;;1.85;;
17564;SDS011;62994;52.126;5.596;2023-04-19T14:46:01;4.68;;;2.63;;
17564;SDS011;62994;52.126;5.596;2023-04-19T14:48:32;2.70;;;2.00;;
17564;SDS011;62994;52.126;5.596;2023-04-19T14:51:00;5.85;;;2.25;;
17564;SDS011;62994;52.126;5.596;2023-04-19T14:53:28;3.20;;;2.25;;
17564;SDS011;62994;52.126;5.596;2023-04-19T14:55:55;4.53;;;2.30;;
17564;SDS011;62994;52.126;5.596;2023-04-19T14:58:24;2.67;;;2.47;;
17564;SDS011;62994;52.126;5.596;2023-04-19T15:00:51;2.47;;;2.30;;